createdAt,value
2023-04-22T00:00:41.246Z,20.07
2023-04-22T00:03:10.618Z,17.77
2023-04-22T00:05:42.385Z,23.63
2023-04-22T00:08:11.830Z,20.93
2023-04-22T00:10:41.702Z,19.23
2023-04-22T00:13:10.835Z,21.97
2023-04-22T00:15:40.789Z,22.43
2023-04-22T00:18:14.759Z,22.13
2023-04-22T00:20:46.987Z,23.80
2023-04-22T00:23:16.654Z,20.70
2023-04-22T00:25:45.399Z,27.00
2023-04-22T00:28:14.284Z,23.23
2023-04-22T00:30:43.520Z,22.97
2023-04-22T00:33:12.892Z,21.97
2023-04-22T00:35:41.791Z,32.80
2023-04-22T00:38:12.413Z,26.97
2023-04-22T00:40:41.513Z,35.60
2023-04-22T00:43:10.812Z,32.70
2023-04-22T00:45:41.114Z,33.40
2023-04-22T00:48:11.011Z,32.27
2023-04-22T00:50:40.331Z,30.10
2023-04-22T00:53:09.640Z,28.40
2023-04-22T00:55:40.225Z,26.47
2023-04-22T00:58:10.092Z,27.90
2023-04-22T01:00:39.406Z,27.07
2023-04-22T01:03:09.177Z,27.27
2023-04-22T01:05:39.524Z,29.57
2023-04-22T01:08:08.620Z,26.13
2023-04-22T01:10:39.805Z,27.93
2023-04-22T01:13:08.746Z,28.13
2023-04-22T01:15:37.838Z,30.20
2023-04-22T01:18:07.468Z,32.47
2023-04-22T01:20:36.404Z,34.63
2023-04-22T01:23:06.024Z,29.60
2023-04-22T01:25:36.866Z,32.17
2023-04-22T01:28:06.740Z,35.30
2023-04-22T01:31:05.053Z,30.60
2023-04-22T01:33:34.156Z,27.23
2023-04-22T01:36:02.891Z,33.07
2023-04-22T01:38:34.035Z,27.83
2023-04-22T01:41:04.874Z,28.93
2023-04-22T01:43:34.519Z,26.73
2023-04-22T01:46:06.607Z,28.30
2023-04-22T01:48:37.928Z,30.67
2023-04-22T01:51:07.653Z,29.53
2023-04-22T01:53:38.093Z,27.17
2023-04-22T01:56:09.468Z,26.53
2023-04-22T01:58:41.268Z,29.23
2023-04-22T02:01:12.032Z,31.43
2023-04-22T02:03:42.243Z,27.97
2023-04-22T02:06:13.652Z,34.73
2023-04-22T02:08:42.706Z,29.63
2023-04-22T02:11:13.330Z,27.83
2023-04-22T02:13:43.707Z,36.23
2023-04-22T02:16:13.099Z,31.53
2023-04-22T02:18:42.793Z,28.30
2023-04-22T02:21:12.143Z,30.43
2023-04-22T02:23:43.873Z,26.30
2023-04-22T02:26:14.806Z,27.43
2023-04-22T02:28:44.681Z,30.73
2023-04-22T02:31:13.615Z,28.87
2023-04-22T02:33:43.132Z,28.63
2023-04-22T02:36:12.689Z,24.27
2023-04-22T02:38:41.995Z,30.33
2023-04-22T02:41:11.301Z,27.20
2023-04-22T02:43:46.473Z,30.07
2023-04-22T02:46:16.880Z,27.97
2023-04-22T02:48:46.051Z,25.77
2023-04-22T02:51:14.877Z,30.13
2023-04-22T02:53:44.178Z,28.03
2023-04-22T02:56:13.081Z,24.23
2023-04-22T02:58:44.116Z,29.43
2023-04-22T03:01:13.637Z,27.50
2023-04-22T03:03:43.398Z,27.30
2023-04-22T03:06:16.676Z,23.47
2023-04-22T03:08:46.168Z,24.60
2023-04-22T03:11:15.847Z,26.93
2023-04-22T03:13:46.561Z,28.57
2023-04-22T03:16:16.616Z,25.10
2023-04-22T03:18:46.212Z,24.37
2023-04-22T03:21:15.404Z,30.40
2023-04-22T03:23:45.062Z,26.87
2023-04-22T03:26:14.944Z,26.33
2023-04-22T03:28:46.442Z,24.23
2023-04-22T03:31:16.928Z,23.37
2023-04-22T03:33:47.495Z,27.80
2023-04-22T03:36:25.753Z,23.10
2023-04-22T03:38:54.704Z,27.10
2023-04-22T03:41:26.767Z,25.43
2023-04-22T03:43:58.904Z,26.73
2023-04-22T03:46:29.766Z,29.43
2023-04-22T03:49:07.668Z,24.87
2023-04-22T03:51:38.154Z,28.87
2023-04-22T03:54:12.511Z,24.17
2023-04-22T03:56:48.473Z,26.90
2023-04-22T03:59:19.785Z,26.67
2023-04-22T04:01:50.276Z,26.23
2023-04-22T04:04:23.899Z,35.17
2023-04-22T04:06:58.332Z,33.93
2023-04-22T04:09:31.613Z,30.60
2023-04-22T04:12:02.039Z,27.00
2023-04-22T04:14:37.440Z,28.07
2023-04-22T04:17:09.887Z,27.93
2023-04-22T04:19:40.156Z,32.27
2023-04-22T04:22:10.392Z,30.93
2023-04-22T04:24:47.679Z,42.03
2023-04-22T04:27:27.081Z,29.10
2023-04-22T04:30:01.152Z,28.13
2023-04-22T04:32:43.302Z,29.33
2023-04-22T04:35:15.661Z,29.77
2023-04-22T04:37:51.176Z,27.73
2023-04-22T04:40:22.265Z,38.43
2023-04-22T04:43:08.888Z,30.13
2023-04-22T04:45:49.088Z,34.93
2023-04-22T04:48:25.240Z,30.70
2023-04-22T04:50:59.555Z,29.47
2023-04-22T04:53:31.988Z,32.90
2023-04-22T04:56:01.075Z,27.07
2023-04-22T04:58:32.229Z,29.80
2023-04-22T05:01:23.066Z,29.53
2023-04-22T05:03:53.730Z,36.37
2023-04-22T05:06:24.066Z,32.47
2023-04-22T05:09:01.311Z,34.43
2023-04-22T05:11:31.203Z,35.40
2023-04-22T05:14:02.867Z,35.20
2023-04-22T05:16:38.196Z,34.67
2023-04-22T05:19:07.323Z,33.97
2023-04-22T05:21:37.536Z,26.90
2023-04-22T05:24:06.939Z,33.13
2023-04-22T05:26:36.233Z,36.40
2023-04-22T05:29:14.044Z,29.23
2023-04-22T05:31:45.168Z,29.30
2023-04-22T05:34:14.333Z,26.17
2023-04-22T05:36:43.927Z,30.10
2023-04-22T05:39:13.338Z,27.73
2023-04-22T05:41:44.786Z,27.50
2023-04-22T05:44:15.697Z,27.57
2023-04-22T05:46:46.899Z,25.37
2023-04-22T05:49:16.092Z,27.07
2023-04-22T05:52:04.313Z,22.67
2023-04-22T05:54:44.252Z,22.77
2023-04-22T05:57:13.585Z,22.47
2023-04-22T05:59:46.647Z,24.33
2023-04-22T06:02:18.201Z,21.53
2023-04-22T06:04:48.437Z,19.20
2023-04-22T06:07:18.006Z,22.20
2023-04-22T06:09:47.461Z,19.73
2023-04-22T06:12:17.737Z,20.63
2023-04-22T06:14:47.110Z,21.53
2023-04-22T06:17:18.098Z,21.60
2023-04-22T06:19:47.421Z,20.67
2023-04-22T06:22:16.537Z,20.03
2023-04-22T06:24:48.487Z,19.37
2023-04-22T06:27:18.907Z,23.77
2023-04-22T06:29:48.248Z,28.13
2023-04-22T06:32:19.079Z,25.27
2023-04-22T06:34:48.434Z,26.97
2023-04-22T06:37:17.889Z,26.43
2023-04-22T06:39:48.527Z,23.57
2023-04-22T06:42:57.527Z,25.87
2023-04-22T06:45:55.511Z,23.17
2023-04-22T06:48:44.853Z,18.73
2023-04-22T06:51:31.067Z,21.30
2023-04-22T06:54:00.557Z,16.07
2023-04-22T06:56:29.967Z,21.77
2023-04-22T06:58:59.492Z,17.83
2023-04-22T07:01:28.952Z,21.77
2023-04-22T07:04:00.393Z,20.00
2023-04-22T07:06:30.076Z,19.13
2023-04-22T07:08:59.274Z,17.17
2023-04-22T07:11:31.692Z,16.17
2023-04-22T07:14:05.500Z,17.03
2023-04-22T07:16:34.425Z,18.43
2023-04-22T07:19:06.250Z,23.13
2023-04-22T07:21:35.407Z,20.30
2023-04-22T07:24:04.749Z,24.20
2023-04-22T07:26:34.833Z,18.40
2023-04-22T07:29:03.952Z,19.93
2023-04-22T07:31:32.633Z,18.10
2023-04-22T07:34:01.492Z,22.47
2023-04-22T07:36:32.867Z,20.00
2023-04-22T07:39:01.749Z,19.00
2023-04-22T07:41:30.271Z,22.47
2023-04-22T07:43:59.403Z,21.17
2023-04-22T07:46:28.298Z,18.10
2023-04-22T07:48:57.107Z,17.20
2023-04-22T07:51:26.019Z,16.93
2023-04-22T07:53:56.092Z,22.27
2023-04-22T07:56:24.634Z,18.20
2023-04-22T07:58:53.321Z,16.13
2023-04-22T08:01:21.915Z,14.30
2023-04-22T08:03:50.741Z,15.40
2023-04-22T08:06:19.874Z,13.87
2023-04-22T08:08:48.757Z,14.82
2023-04-22T08:11:18.600Z,13.13
2023-04-22T08:13:47.244Z,13.20
2023-04-22T08:16:15.907Z,13.67
2023-04-22T08:18:44.708Z,12.90
2023-04-22T08:21:13.381Z,16.43
2023-04-22T08:23:41.998Z,18.92
2023-04-22T08:26:15.321Z,12.98
2023-04-22T08:28:45.364Z,14.15
2023-04-22T08:31:15.010Z,19.77
2023-04-22T08:33:43.825Z,16.70
2023-04-22T08:36:12.652Z,15.95
2023-04-22T08:38:41.378Z,13.45
2023-04-22T08:41:12.110Z,19.05
2023-04-22T08:43:41.373Z,16.52
2023-04-22T08:50:12.779Z,17.73
2023-04-22T08:52:43.684Z,17.73
2023-04-22T08:55:13.084Z,10.60
2023-04-22T08:57:44.975Z,14.77
2023-04-22T09:00:15.721Z,18.25
2023-04-22T09:02:47.748Z,16.73
2023-04-22T09:05:18.219Z,17.83
2023-04-22T09:07:47.361Z,15.68
2023-04-22T09:10:16.459Z,13.13
2023-04-22T09:12:46.233Z,12.60
2023-04-22T09:15:15.235Z,11.90
2023-04-22T09:17:44.658Z,14.32
2023-04-22T09:20:16.318Z,13.35
2023-04-22T09:22:48.347Z,11.80
2023-04-22T09:25:18.680Z,12.88
2023-04-22T09:27:51.284Z,12.52
2023-04-22T09:30:25.500Z,12.45
2023-04-22T09:32:56.518Z,13.10
2023-04-22T09:35:28.721Z,11.43
2023-04-22T09:38:00.360Z,9.10
2023-04-22T09:40:30.754Z,8.35
2023-04-22T09:43:02.472Z,14.85
2023-04-22T09:45:33.076Z,8.90
2023-04-22T09:48:05.089Z,7.20
2023-04-22T09:50:33.841Z,9.35
2023-04-22T09:53:06.791Z,7.93
2023-04-22T09:55:38.051Z,12.57
2023-04-22T09:58:10.196Z,7.85
2023-04-22T10:00:43.350Z,12.57
2023-04-22T10:03:14.162Z,6.72
2023-04-22T10:05:45.354Z,5.60
2023-04-22T10:08:18.843Z,6.97
2023-04-22T10:10:48.888Z,10.45
2023-04-22T10:13:20.187Z,7.90
2023-04-22T10:15:53.822Z,8.65
2023-04-22T10:18:25.952Z,5.88
2023-04-22T10:20:56.404Z,9.05
2023-04-22T10:23:27.738Z,4.88
2023-04-22T10:25:58.462Z,4.88
2023-04-22T10:28:31.173Z,4.53
2023-04-22T10:31:00.837Z,6.43
2023-04-22T10:33:41.995Z,5.25
2023-04-22T10:36:12.872Z,8.38
2023-04-22T10:39:04.342Z,5.70
2023-04-22T10:41:36.597Z,6.88
2023-04-22T10:44:09.477Z,4.65
2023-04-22T10:46:57.866Z,7.47
2023-04-22T10:49:27.852Z,8.82
2023-04-22T10:52:01.825Z,6.30
2023-04-22T10:55:04.180Z,7.20
2023-04-22T10:57:38.442Z,5.97
2023-04-22T11:00:53.167Z,5.65
2023-04-22T11:03:30.292Z,5.72
2023-04-22T11:06:20.357Z,5.30
2023-04-22T11:08:52.443Z,7.50
2023-04-22T11:11:23.197Z,8.10
2023-04-22T11:13:53.296Z,9.63
2023-04-22T11:16:24.432Z,5.40
2023-04-22T11:18:54.187Z,6.25
2023-04-22T11:21:24.481Z,7.68
2023-04-22T11:23:54.581Z,8.68
2023-04-22T11:26:38.233Z,8.23
2023-04-22T11:29:07.727Z,5.20
2023-04-22T11:31:38.249Z,6.93
2023-04-22T11:34:10.453Z,5.93
2023-04-22T11:36:40.187Z,5.45
2023-04-22T11:39:15.641Z,7.72
2023-04-22T11:41:46.934Z,5.15
2023-04-22T11:44:16.591Z,6.20
2023-04-22T11:46:46.853Z,9.05
2023-04-22T11:49:21.291Z,5.82
2023-04-22T11:51:55.788Z,6.40
2023-04-22T11:54:33.821Z,5.82
2023-04-22T11:57:08.490Z,8.45
2023-04-22T11:59:38.059Z,4.30
2023-04-22T12:02:08.260Z,5.95
2023-04-22T12:04:41.423Z,9.23
2023-04-22T12:07:10.864Z,7.28
2023-04-22T12:09:41.721Z,8.82
2023-04-22T12:12:12.553Z,5.07
2023-04-22T12:14:41.627Z,5.47
2023-04-22T12:17:12.813Z,7.18
2023-04-22T12:19:42.676Z,6.20
2023-04-22T12:22:12.265Z,4.85
2023-04-22T12:24:46.891Z,6.18
2023-04-22T12:27:17.989Z,6.45
2023-04-22T12:29:54.753Z,5.50
2023-04-22T12:32:25.001Z,4.18
2023-04-22T12:34:55.302Z,3.75
2023-04-22T12:37:24.541Z,5.22
2023-04-22T12:39:53.488Z,4.85
2023-04-22T12:42:24.129Z,5.10
2023-04-22T12:44:52.950Z,6.80
2023-04-22T12:47:22.011Z,5.15
2023-04-22T12:49:52.237Z,7.10
2023-04-22T12:52:21.915Z,6.60
2023-04-22T12:54:51.456Z,6.07
2023-04-22T12:57:21.372Z,4.82
2023-04-22T12:59:53.728Z,5.38
2023-04-22T13:02:22.591Z,7.88
2023-04-22T13:04:51.777Z,4.10
2023-04-22T13:07:21.075Z,6.32
2023-04-22T13:09:49.761Z,8.52
2023-04-22T13:12:23.798Z,4.57
2023-04-22T13:14:54.872Z,5.47
2023-04-22T13:17:23.844Z,6.15
2023-04-22T13:19:52.516Z,6.68
2023-04-22T13:22:21.371Z,6.50
2023-04-22T13:24:50.433Z,6.50
2023-04-22T13:27:19.606Z,4.80
2023-04-22T13:29:48.811Z,7.15
2023-04-22T13:32:19.359Z,3.53
2023-04-22T13:34:48.586Z,3.42
2023-04-22T13:37:19.653Z,5.60
2023-04-22T13:39:48.368Z,4.85
2023-04-22T13:42:17.376Z,5.03
2023-04-22T13:44:46.054Z,4.95
2023-04-22T13:47:14.726Z,4.55
2023-04-22T13:49:44.943Z,4.03
2023-04-22T13:52:13.712Z,6.18
2023-04-22T13:54:42.389Z,5.75
2023-04-22T13:57:11.310Z,5.18
2023-04-22T13:59:40.418Z,6.65
2023-04-22T14:02:10.244Z,6.07
2023-04-22T14:04:40.750Z,5.78
2023-04-22T14:07:11.281Z,5.93
2023-04-22T14:09:41.460Z,6.90
2023-04-22T14:12:11.714Z,8.38
2023-04-22T14:14:41.854Z,6.60
2023-04-22T14:17:12.145Z,5.63
2023-04-22T14:19:41.315Z,4.68
2023-04-22T14:22:11.699Z,5.55
2023-04-22T14:24:40.569Z,5.07
2023-04-22T14:27:11.248Z,5.35
2023-04-22T14:29:41.914Z,5.85
2023-04-22T14:32:11.019Z,8.40
2023-04-22T14:34:40.640Z,8.13
2023-04-22T14:37:15.794Z,4.55
2023-04-22T14:39:46.427Z,4.03
2023-04-22T14:42:18.646Z,10.27
2023-04-22T14:44:47.642Z,4.85
2023-04-22T14:47:26.718Z,6.53
2023-04-22T14:49:56.025Z,7.03
2023-04-22T14:52:27.069Z,6.45
2023-04-22T14:54:55.687Z,7.63
2023-04-22T14:57:25.167Z,8.15
2023-04-22T14:59:53.912Z,6.68
2023-04-22T15:02:23.639Z,6.18
2023-04-22T15:04:52.731Z,7.22
2023-04-22T15:07:21.533Z,7.10
2023-04-22T15:09:51.601Z,4.93
2023-04-22T15:12:20.429Z,6.22
2023-04-22T15:14:49.874Z,6.00
2023-04-22T15:17:21.123Z,18.83
2023-04-22T15:19:50.384Z,8.60
2023-04-22T15:22:19.220Z,10.82
2023-04-22T15:24:48.504Z,8.55
2023-04-22T15:27:18.975Z,4.63
2023-04-22T15:29:48.264Z,8.07
2023-04-22T15:32:17.505Z,10.32
2023-04-22T15:34:46.344Z,7.63
2023-04-22T15:37:16.127Z,10.82
2023-04-22T15:39:45.076Z,9.38
2023-04-22T15:42:13.684Z,5.65
2023-04-22T15:44:44.028Z,7.30
2023-04-22T15:47:13.767Z,6.72
2023-04-22T15:49:42.559Z,15.68
2023-04-22T15:52:11.879Z,11.80
2023-04-22T15:54:41.151Z,10.60
2023-04-22T15:57:10.389Z,6.93
2023-04-22T15:59:39.896Z,7.43
2023-04-22T16:02:11.440Z,5.80
2023-04-22T16:04:40.995Z,10.02
2023-04-22T16:07:10.906Z,9.10
2023-04-22T16:09:40.268Z,7.50
2023-04-22T16:12:09.873Z,11.40
2023-04-22T16:14:38.656Z,16.17
2023-04-22T16:17:08.997Z,6.72
2023-04-22T16:19:40.129Z,5.70
2023-04-22T16:22:09.754Z,5.88
2023-04-22T16:24:38.383Z,6.18
2023-04-22T16:27:07.662Z,7.70
2023-04-22T16:29:37.021Z,9.13
2023-04-22T16:32:06.993Z,7.07
2023-04-22T16:34:35.968Z,8.30
2023-04-22T16:37:06.260Z,8.32
2023-04-22T16:39:34.850Z,6.40
2023-04-22T16:42:03.863Z,6.60
2023-04-22T16:44:32.428Z,9.80
2023-04-22T16:47:01.921Z,10.90
2023-04-22T16:49:30.498Z,7.40
2023-04-22T16:51:59.657Z,7.63
2023-04-22T16:54:30.259Z,9.20
2023-04-22T16:56:59.648Z,8.30
2023-04-22T16:59:29.914Z,12.30
2023-04-22T17:01:59.076Z,7.90
2023-04-22T17:04:28.479Z,10.57
2023-04-22T17:06:57.558Z,6.70
2023-04-22T17:09:26.782Z,10.00
2023-04-22T17:11:58.116Z,6.75
2023-04-22T17:14:27.313Z,10.68
2023-04-22T17:16:57.450Z,7.88
2023-04-22T17:19:26.152Z,11.25
2023-04-22T17:21:57.347Z,6.53
2023-04-22T17:24:26.349Z,10.20
2023-04-22T17:26:56.343Z,8.77
2023-04-22T17:29:27.849Z,8.80
2023-04-22T17:31:57.210Z,7.88
2023-04-22T17:34:26.173Z,12.77
2023-04-22T17:37:01.650Z,9.63
2023-04-22T17:39:33.169Z,10.27
2023-04-22T17:42:04.318Z,14.10
2023-04-22T17:44:34.062Z,10.98
2023-04-22T17:47:05.985Z,8.73
2023-04-22T17:49:36.515Z,8.98
2023-04-22T17:52:05.659Z,40.45
2023-04-22T17:54:34.808Z,94.18
2023-04-22T17:57:06.340Z,76.78
2023-04-22T17:59:35.866Z,69.07
2023-04-22T18:02:06.092Z,79.03
2023-04-22T18:04:37.949Z,50.08
2023-04-22T18:07:07.558Z,51.40
2023-04-22T18:09:37.051Z,63.70
2023-04-22T18:12:09.147Z,50.05
2023-04-22T18:14:39.081Z,69.95
2023-04-22T18:17:09.184Z,53.22
2023-04-22T18:19:38.508Z,50.47
2023-04-22T18:22:08.699Z,44.80
2023-04-22T18:24:38.288Z,50.45
2023-04-22T18:27:10.735Z,36.67
2023-04-22T18:29:40.776Z,42.15
2023-04-22T18:32:11.004Z,31.25
2023-04-22T18:34:40.964Z,46.13
2023-04-22T18:37:11.110Z,46.07
2023-04-22T18:39:39.886Z,44.03
2023-04-22T18:42:10.925Z,72.77
2023-04-22T18:44:41.072Z,64.00
2023-04-22T18:47:11.247Z,47.00
2023-04-22T18:49:40.770Z,56.50
2023-04-22T18:52:11.067Z,38.10
2023-04-22T18:54:41.190Z,38.00
2023-04-22T18:57:12.427Z,40.67
2023-04-22T18:59:42.718Z,38.20
2023-04-22T19:02:13.844Z,37.83
2023-04-22T19:04:43.093Z,38.37
2023-04-22T19:07:12.677Z,31.57
2023-04-22T19:09:41.985Z,31.60
2023-04-22T19:12:15.491Z,31.57
2023-04-22T19:14:45.129Z,41.53
2023-04-22T19:17:14.167Z,40.67
2023-04-22T19:19:43.689Z,32.40
2023-04-22T19:22:13.714Z,41.87
2023-04-22T19:24:43.372Z,39.73
2023-04-22T19:27:14.582Z,54.93
2023-04-22T19:29:51.456Z,58.80
2023-04-22T19:32:20.891Z,90.37
2023-04-22T19:34:50.765Z,82.30
2023-04-22T19:37:20.057Z,66.17
2023-04-22T19:39:49.209Z,70.80
2023-04-22T19:42:21.692Z,57.23
2023-04-22T19:44:51.310Z,63.03
2023-04-22T19:47:21.412Z,57.20
2023-04-22T19:49:51.076Z,42.80
2023-04-22T19:52:21.924Z,44.43
2023-04-22T19:54:56.026Z,42.00
2023-04-22T19:57:28.238Z,42.43
2023-04-22T20:00:00.755Z,46.30
2023-04-22T20:02:32.011Z,57.00
2023-04-22T20:05:03.193Z,37.73
2023-04-22T20:07:33.383Z,38.70
2023-04-22T20:10:04.146Z,49.50
2023-04-22T20:12:36.752Z,37.70
2023-04-22T20:15:08.518Z,87.60
2023-04-22T20:17:41.712Z,48.07
2023-04-22T20:20:15.650Z,42.73
2023-04-22T20:22:46.808Z,47.67
2023-04-22T20:25:19.740Z,45.50
2023-04-22T20:27:51.665Z,54.20
2023-04-22T20:30:21.120Z,49.20
2023-04-22T20:32:50.408Z,58.43
2023-04-22T20:35:20.830Z,54.10
2023-04-22T20:37:53.212Z,54.27
2023-04-22T20:40:24.804Z,69.93
2023-04-22T20:43:00.660Z,45.57
2023-04-22T20:45:29.983Z,44.47
2023-04-22T20:48:01.307Z,49.10
2023-04-22T20:50:33.792Z,45.33
2023-04-22T20:53:06.199Z,36.87
2023-04-22T20:55:37.202Z,42.37
2023-04-22T20:58:09.722Z,42.50
2023-04-22T21:00:39.372Z,55.70
2023-04-22T21:03:12.879Z,50.07
2023-04-22T21:05:46.483Z,49.03
2023-04-22T21:08:23.794Z,44.27
2023-04-22T21:10:55.308Z,50.40
2023-04-22T21:13:26.889Z,51.97
2023-04-22T21:16:00.864Z,49.10
2023-04-22T21:18:33.191Z,60.70
2023-04-22T21:21:04.565Z,48.00
2023-04-22T21:23:35.373Z,39.20
2023-04-22T21:26:05.819Z,42.53
2023-04-22T21:28:37.896Z,48.90
2023-04-22T21:31:08.532Z,37.57
2023-04-22T21:33:37.753Z,78.50
2023-04-22T21:36:07.111Z,53.60
2023-04-22T21:38:36.385Z,40.83
2023-04-22T21:41:06.563Z,44.50
2023-04-22T21:43:37.184Z,49.77
2023-04-22T21:46:09.662Z,41.67
2023-04-22T21:48:38.989Z,43.17
2023-04-22T21:51:08.560Z,52.10
2023-04-22T21:53:38.042Z,47.53
2023-04-22T21:56:08.081Z,43.40
2023-04-22T21:58:38.583Z,47.53
2023-04-22T22:01:08.677Z,47.77
2023-04-22T22:03:38.965Z,45.30
2023-04-22T22:06:08.911Z,44.43
2023-04-22T22:08:39.328Z,42.43
2023-04-22T22:11:14.510Z,40.07
2023-04-22T22:13:52.128Z,46.57
2023-04-22T22:16:21.693Z,52.30
2023-04-22T22:18:51.281Z,46.77
2023-04-22T22:21:20.580Z,48.30
2023-04-22T22:23:49.734Z,49.77
2023-04-22T22:26:19.310Z,42.53
2023-04-22T22:28:48.141Z,44.50
2023-04-22T22:31:19.427Z,43.07
2023-04-22T22:33:48.274Z,43.43
2023-04-22T22:36:17.694Z,46.87
2023-04-22T22:38:50.013Z,43.87
2023-04-22T22:41:19.546Z,45.33
2023-04-22T22:43:48.148Z,42.60
2023-04-22T22:46:21.459Z,47.83
2023-04-22T22:48:50.533Z,44.33
2023-04-22T22:51:19.528Z,43.17
2023-04-22T22:53:49.002Z,41.63
2023-04-22T22:56:21.519Z,44.23
2023-04-22T22:58:50.960Z,46.23
2023-04-22T23:01:21.808Z,54.60
2023-04-22T23:03:51.800Z,50.63
2023-04-22T23:06:20.833Z,56.87
2023-04-22T23:08:49.646Z,53.67
2023-04-22T23:11:18.892Z,49.30
2023-04-22T23:13:48.560Z,51.67
2023-04-22T23:16:19.145Z,50.77
2023-04-22T23:18:50.484Z,47.73
2023-04-22T23:21:21.303Z,47.03
2023-04-22T23:23:51.949Z,44.67
2023-04-22T23:26:21.081Z,39.53
2023-04-22T23:28:50.999Z,42.67
2023-04-22T23:31:21.704Z,38.77
2023-04-22T23:33:57.493Z,43.50
2023-04-22T23:36:28.199Z,43.43
2023-04-22T23:38:58.049Z,37.73
2023-04-22T23:41:27.833Z,39.37
2023-04-22T23:43:59.326Z,49.40
2023-04-22T23:46:30.312Z,32.37
2023-04-22T23:49:01.892Z,35.83
2023-04-22T23:51:31.414Z,36.00
2023-04-22T23:54:00.940Z,40.17
2023-04-22T23:56:30.966Z,33.90
2023-04-22T23:59:03.178Z,34.53
